createdAt,value
2023-04-18T00:00:45.034Z,0.00
2023-04-18T00:01:45.082Z,0.00
2023-04-18T00:02:45.183Z,0.00
2023-04-18T00:03:45.264Z,0.00
2023-04-18T00:04:45.266Z,0.00
2023-04-18T00:05:45.193Z,0.00
2023-04-18T00:06:45.184Z,0.00
2023-04-18T00:07:45.207Z,0.00
2023-04-18T00:08:45.235Z,0.00
2023-04-18T00:09:45.409Z,0.00
2023-04-18T00:10:45.283Z,0.00
2023-04-18T00:11:45.317Z,0.00
2023-04-18T00:12:45.336Z,0.00
2023-04-18T00:13:45.358Z,0.00
2023-04-18T00:14:45.383Z,0.00
2023-04-18T00:15:45.406Z,0.00
2023-04-18T00:16:45.483Z,0.00
2023-04-18T00:17:45.545Z,0.00
2023-04-18T00:18:45.477Z,0.00
2023-04-18T00:19:45.506Z,0.00
2023-04-18T00:20:45.533Z,0.00
2023-04-18T00:21:45.576Z,0.00
2023-04-18T00:22:45.581Z,0.00
2023-04-18T00:23:45.605Z,0.00
2023-04-18T00:24:45.634Z,0.00
2023-04-18T00:25:45.655Z,0.00
2023-04-18T00:26:45.678Z,0.00
2023-04-18T00:27:45.698Z,0.00
2023-04-18T00:28:46.750Z,0.00
2023-04-18T00:29:46.153Z,0.00
2023-04-18T00:30:45.793Z,0.00
2023-04-18T00:31:45.806Z,0.00
2023-04-18T00:33:28.384Z,0.00
2023-04-18T00:34:28.410Z,0.00
2023-04-18T00:35:28.424Z,0.00
2023-04-18T00:36:31.070Z,0.00
2023-04-18T00:37:28.488Z,0.00
2023-04-18T00:38:28.498Z,0.00
2023-04-18T00:39:28.523Z,0.00
2023-04-18T00:40:28.543Z,0.00
2023-04-18T00:41:28.568Z,0.00
2023-04-18T00:42:28.592Z,0.00
2023-04-18T00:43:28.623Z,0.00
2023-04-18T00:44:28.636Z,0.00
2023-04-18T00:45:28.669Z,0.00
2023-04-18T00:46:28.798Z,0.00
2023-04-18T00:47:28.759Z,0.00
2023-04-18T00:48:28.735Z,0.00
2023-04-18T00:49:28.772Z,0.00
2023-04-18T00:50:28.793Z,0.00
2023-04-18T00:51:28.814Z,0.00
2023-04-18T00:52:28.840Z,0.00
2023-04-18T00:53:28.901Z,0.00
2023-04-18T00:54:28.886Z,0.00
2023-04-18T00:55:28.915Z,0.00
2023-04-18T00:56:29.191Z,0.00
2023-04-18T00:57:28.971Z,0.00
2023-04-18T00:58:28.992Z,0.00
2023-04-18T00:59:29.010Z,0.00
2023-04-18T01:00:29.045Z,0.00
2023-04-18T01:01:29.136Z,0.00
2023-04-18T01:02:29.230Z,0.00
2023-04-18T01:03:29.427Z,0.00
2023-04-18T01:04:29.264Z,0.00
2023-04-18T01:05:29.170Z,0.00
2023-04-18T01:06:29.185Z,0.00
2023-04-18T01:07:29.213Z,0.00
2023-04-18T01:08:29.238Z,0.00
2023-04-18T01:09:29.285Z,0.00
2023-04-18T01:10:29.283Z,0.00
2023-04-18T01:11:29.312Z,0.00
2023-04-18T01:12:29.339Z,0.00
2023-04-18T01:13:29.360Z,0.00
2023-04-18T01:14:29.394Z,0.00
2023-04-18T01:15:29.409Z,0.00
2023-04-18T01:16:29.503Z,0.00
2023-04-18T01:17:29.496Z,0.00
2023-04-18T01:18:29.484Z,0.00
2023-04-18T01:19:29.512Z,0.00
2023-04-18T01:20:29.537Z,0.00
2023-04-18T01:21:29.564Z,0.00
2023-04-18T01:22:29.592Z,0.00
2023-04-18T01:23:29.620Z,0.00
2023-04-18T01:24:29.633Z,0.00
2023-04-18T01:25:29.694Z,0.00
2023-04-18T01:26:29.679Z,0.00
2023-04-18T01:27:29.714Z,0.00
2023-04-18T01:28:29.731Z,0.00
2023-04-18T01:29:29.754Z,0.00
2023-04-18T01:30:29.779Z,0.00
2023-04-18T01:31:29.866Z,0.00
2023-04-18T01:32:29.847Z,0.00
2023-04-18T01:33:29.860Z,0.00
2023-04-18T01:34:29.890Z,0.00
2023-04-18T01:35:29.917Z,0.00
2023-04-18T01:36:29.929Z,0.00
2023-04-18T01:37:29.948Z,0.00
2023-04-18T01:38:29.971Z,0.00
2023-04-18T01:39:30.001Z,0.00
2023-04-18T01:40:30.017Z,0.00
2023-04-18T01:41:30.070Z,0.00
2023-04-18T01:42:30.070Z,0.00
2023-04-18T01:43:30.113Z,0.00
2023-04-18T01:44:30.122Z,0.00
2023-04-18T01:45:30.144Z,0.00
2023-04-18T01:46:30.187Z,0.00
2023-04-18T01:47:30.218Z,0.00
2023-04-18T01:48:30.216Z,0.00
2023-04-18T01:49:30.240Z,0.00
2023-04-18T01:50:30.264Z,0.00
2023-04-18T01:51:30.293Z,0.00
2023-04-18T01:52:30.322Z,0.00
2023-04-18T01:53:30.344Z,0.00
2023-04-18T01:54:30.364Z,0.00
2023-04-18T01:55:30.389Z,0.00
2023-04-18T01:56:30.412Z,0.00
2023-04-18T01:57:30.461Z,0.00
2023-04-18T01:58:30.462Z,0.00
2023-04-18T01:59:30.490Z,0.00
2023-04-18T02:00:30.542Z,0.00
2023-04-18T02:01:30.536Z,0.00
2023-04-18T02:02:30.765Z,0.00
2023-04-18T02:03:30.754Z,0.00
2023-04-18T02:04:30.618Z,0.00
2023-04-18T02:05:30.643Z,0.00
2023-04-18T02:06:30.659Z,0.00
2023-04-18T02:07:30.685Z,0.00
2023-04-18T02:08:30.724Z,0.00
2023-04-18T02:09:30.730Z,0.00
2023-04-18T02:10:30.753Z,0.00
2023-04-18T02:11:30.795Z,0.00
2023-04-18T02:12:30.807Z,0.00
2023-04-18T02:13:30.851Z,0.00
2023-04-18T02:14:30.857Z,0.00
2023-04-18T02:15:30.883Z,0.00
2023-04-18T02:16:30.919Z,0.00
2023-04-18T02:17:30.952Z,0.00
2023-04-18T02:18:30.955Z,0.00
2023-04-18T02:19:30.988Z,0.00
2023-04-18T02:20:31.003Z,0.00
2023-04-18T02:21:31.038Z,0.00
2023-04-18T02:22:31.066Z,0.00
2023-04-18T02:23:31.089Z,0.00
2023-04-18T02:24:31.105Z,0.00
2023-04-18T02:25:31.129Z,0.00
2023-04-18T02:26:31.152Z,0.00
2023-04-18T02:27:31.188Z,0.00
2023-04-18T02:28:31.207Z,0.00
2023-04-18T02:29:31.256Z,0.00
2023-04-18T02:30:31.249Z,0.00
2023-04-18T02:31:31.294Z,0.00
2023-04-18T02:32:31.345Z,0.00
2023-04-18T02:33:31.331Z,0.00
2023-04-18T02:34:31.348Z,0.00
2023-04-18T02:35:31.388Z,0.00
2023-04-18T02:36:31.414Z,0.00
2023-04-18T02:37:31.444Z,0.00
2023-04-18T02:38:31.457Z,0.00
2023-04-18T02:39:31.479Z,0.00
2023-04-18T02:40:31.511Z,0.00
2023-04-18T02:41:31.520Z,0.00
2023-04-18T02:42:31.543Z,0.00
2023-04-18T02:43:31.569Z,0.00
2023-04-18T02:44:31.592Z,0.00
2023-04-18T02:45:31.761Z,0.00
2023-04-18T02:46:31.838Z,0.00
2023-04-18T02:47:37.580Z,0.00
2023-04-18T02:48:31.732Z,0.00
2023-04-18T02:49:31.717Z,0.00
2023-04-18T02:50:31.737Z,0.00
2023-04-18T02:51:31.764Z,0.00
2023-04-18T02:52:31.787Z,0.00
2023-04-18T02:53:31.816Z,0.00
2023-04-18T02:54:31.841Z,0.00
2023-04-18T02:55:31.860Z,0.00
2023-04-18T02:56:31.892Z,0.00
2023-04-18T02:57:31.910Z,0.00
2023-04-18T02:58:31.940Z,0.00
2023-04-18T02:59:31.958Z,0.00
2023-04-18T03:00:31.980Z,0.00
2023-04-18T03:01:32.115Z,0.00
2023-04-18T03:02:32.135Z,0.00
2023-04-18T03:03:32.096Z,0.00
2023-04-18T03:04:32.115Z,0.00
2023-04-18T03:05:32.102Z,0.00
2023-04-18T03:06:32.124Z,0.00
2023-04-18T03:07:32.404Z,0.00
2023-04-18T03:08:32.184Z,0.00
2023-04-18T03:09:32.200Z,0.00
2023-04-18T03:10:32.226Z,0.00
2023-04-18T03:11:32.258Z,0.00
2023-04-18T03:12:32.270Z,0.00
2023-04-18T03:13:32.300Z,0.00
2023-04-18T03:14:32.326Z,0.00
2023-04-18T03:15:32.374Z,0.00
2023-04-18T03:16:32.366Z,0.00
2023-04-18T03:17:32.438Z,0.00
2023-04-18T03:18:32.439Z,0.00
2023-04-18T03:19:32.444Z,0.00
2023-04-18T03:20:32.471Z,0.00
2023-04-18T03:21:32.490Z,0.00
2023-04-18T03:22:32.513Z,0.00
2023-04-18T03:23:32.540Z,0.00
2023-04-18T03:24:32.560Z,0.00
2023-04-18T03:25:32.589Z,0.00
2023-04-18T03:26:32.615Z,0.00
2023-04-18T03:27:32.639Z,0.00
2023-04-18T03:28:32.656Z,0.00
2023-04-18T03:29:32.696Z,0.00
2023-04-18T03:30:32.719Z,0.00
2023-04-18T03:31:32.845Z,0.00
2023-04-18T03:32:32.792Z,0.00
2023-04-18T03:33:32.804Z,0.00
2023-04-18T03:34:32.803Z,0.00
2023-04-18T03:35:32.828Z,0.00
2023-04-18T03:36:32.848Z,0.00
2023-04-18T03:37:32.880Z,0.00
2023-04-18T03:38:32.893Z,0.00
2023-04-18T03:39:32.936Z,0.00
2023-04-18T03:40:32.944Z,0.00
2023-04-18T03:41:32.969Z,0.00
2023-04-18T03:42:32.993Z,0.00
2023-04-18T03:43:33.021Z,0.00
2023-04-18T03:44:33.040Z,0.00
2023-04-18T03:45:33.075Z,0.00
2023-04-18T03:46:33.137Z,0.00
2023-04-18T03:47:33.130Z,0.00
2023-04-18T03:48:33.134Z,0.00
2023-04-18T03:49:33.190Z,0.00
2023-04-18T03:50:33.193Z,0.00
2023-04-18T03:51:33.209Z,0.00
2023-04-18T03:52:33.250Z,0.00
2023-04-18T03:53:33.264Z,0.00
2023-04-18T03:54:33.284Z,0.00
2023-04-18T03:55:33.310Z,0.00
2023-04-18T03:56:33.330Z,4.00
2023-04-18T03:57:33.368Z,4.00
2023-04-18T03:58:33.392Z,0.00
2023-04-18T03:59:33.405Z,0.00
2023-04-18T04:00:33.429Z,4.00
2023-04-18T04:01:33.501Z,0.00
2023-04-18T04:02:33.569Z,4.00
2023-04-18T04:03:33.569Z,4.00
2023-04-18T04:04:33.532Z,8.00
2023-04-18T04:05:33.626Z,8.00
2023-04-18T04:06:33.590Z,8.00
2023-04-18T04:07:33.599Z,8.00
2023-04-18T04:08:33.620Z,8.00
2023-04-18T04:09:33.645Z,8.00
2023-04-18T04:10:33.690Z,12.00
2023-04-18T04:11:33.698Z,16.00
2023-04-18T04:12:33.735Z,20.00
2023-04-18T04:13:33.741Z,24.00
2023-04-18T04:14:33.775Z,24.00
2023-04-18T04:15:33.811Z,28.00
2023-04-18T04:16:33.866Z,32.00
2023-04-18T04:17:33.897Z,36.00
2023-04-18T04:18:33.864Z,44.00
2023-04-18T04:19:33.887Z,48.00
2023-04-18T04:20:33.907Z,52.00
2023-04-18T04:21:33.951Z,60.00
2023-04-18T04:22:33.955Z,68.00
2023-04-18T04:23:33.980Z,76.00
2023-04-18T04:24:34.017Z,80.00
2023-04-18T04:25:34.039Z,88.00
2023-04-18T04:26:34.049Z,96.00
2023-04-18T04:27:34.115Z,108.00
2023-04-18T04:28:37.324Z,120.00
2023-04-18T04:29:34.121Z,136.00
2023-04-18T04:30:34.141Z,152.00
2023-04-18T04:31:34.214Z,168.00
2023-04-18T04:32:34.213Z,184.00
2023-04-18T04:33:34.219Z,204.00
2023-04-18T04:34:34.239Z,224.00
2023-04-18T04:35:34.279Z,248.00
2023-04-18T04:36:34.283Z,268.00
2023-04-18T04:37:34.324Z,288.00
2023-04-18T04:38:34.335Z,312.00
2023-04-18T04:39:34.356Z,340.00
2023-04-18T04:40:34.375Z,372.00
2023-04-18T04:41:34.404Z,404.00
2023-04-18T04:42:34.424Z,444.00
2023-04-18T04:43:34.455Z,492.00
2023-04-18T04:44:34.499Z,536.00
2023-04-18T04:45:34.547Z,584.00
2023-04-18T04:46:34.523Z,636.00
2023-04-18T04:47:34.576Z,680.00
2023-04-18T04:48:34.569Z,712.00
2023-04-18T04:49:34.594Z,744.00
2023-04-18T04:50:34.619Z,776.00
2023-04-18T04:51:34.637Z,808.00
2023-04-18T04:52:34.665Z,852.00
2023-04-18T04:53:34.709Z,904.00
2023-04-18T04:54:34.716Z,972.00
2023-04-18T04:55:34.737Z,1040.00
2023-04-18T04:56:34.761Z,1080.00
2023-04-18T04:57:34.846Z,1092.00
2023-04-18T04:58:34.809Z,1116.00
2023-04-18T04:59:34.832Z,1132.00
2023-04-18T05:00:34.858Z,1152.00
2023-04-18T05:01:34.961Z,1196.00
2023-04-18T05:02:35.007Z,1252.00
2023-04-18T05:03:35.383Z,1300.00
2023-04-18T05:04:35.123Z,1312.00
2023-04-18T05:05:35.017Z,1388.00
2023-04-18T05:06:35.024Z,1492.00
2023-04-18T05:07:35.061Z,1604.00
2023-04-18T05:08:35.078Z,1636.00
2023-04-18T05:09:35.112Z,1672.00
2023-04-18T05:10:35.099Z,1764.00
2023-04-18T05:11:35.128Z,1880.00
2023-04-18T05:12:35.158Z,2016.00
2023-04-18T05:13:35.169Z,2192.00
2023-04-18T05:14:35.199Z,2356.00
2023-04-18T05:15:35.223Z,2492.00
2023-04-18T05:16:35.300Z,2616.00
2023-04-18T05:17:35.363Z,2696.00
2023-04-18T05:18:35.293Z,2776.00
2023-04-18T05:19:35.322Z,2916.00
2023-04-18T05:20:35.344Z,3092.00
2023-04-18T05:21:35.363Z,3284.00
2023-04-18T05:22:35.394Z,3420.00
2023-04-18T05:23:35.420Z,3560.00
2023-04-18T05:24:35.448Z,3852.00
2023-04-18T05:25:35.486Z,4244.00
2023-04-18T05:26:35.495Z,4388.00
2023-04-18T05:27:35.515Z,4544.00
2023-04-18T05:28:35.554Z,4636.00
2023-04-18T05:29:35.566Z,4784.00
2023-04-18T05:30:35.691Z,5100.00
2023-04-18T05:31:35.668Z,5512.00
2023-04-18T05:32:35.690Z,5676.00
2023-04-18T05:33:35.667Z,5816.00
2023-04-18T05:34:38.046Z,6636.00
2023-04-18T05:35:35.721Z,8556.00
2023-04-18T05:36:35.737Z,11016.00
2023-04-18T05:37:35.767Z,12628.00
2023-04-18T05:38:35.823Z,9492.00
2023-04-18T05:39:35.831Z,8632.00
2023-04-18T05:40:35.852Z,10744.00
2023-04-18T05:41:35.905Z,10404.00
2023-04-18T05:42:35.958Z,10456.00
2023-04-18T05:43:35.919Z,11064.00
2023-04-18T05:44:35.951Z,9744.00
2023-04-18T05:45:35.983Z,9104.00
2023-04-18T05:46:36.055Z,9132.00
2023-04-18T05:47:36.086Z,9840.00
2023-04-18T05:51:11.943Z,9140.00
2023-04-18T05:52:11.988Z,8880.00
2023-04-18T05:53:12.003Z,11180.00
2023-04-18T05:54:12.258Z,12124.00
2023-04-18T05:55:12.049Z,11268.00
2023-04-18T05:56:12.070Z,12304.00
2023-04-18T05:57:12.424Z,12932.00
2023-04-18T05:58:12.126Z,17504.00
2023-04-18T05:59:12.152Z,16704.00
2023-04-18T06:00:12.175Z,12312.00
2023-04-18T06:01:12.419Z,11032.00
2023-04-18T06:02:12.270Z,12504.00
2023-04-18T06:03:12.506Z,11040.00
2023-04-18T06:04:12.475Z,13392.00
2023-04-18T06:05:12.552Z,12504.00
2023-04-18T06:06:12.336Z,10100.00
2023-04-18T06:07:12.373Z,9600.00
2023-04-18T06:08:12.392Z,9268.00
2023-04-18T06:09:12.419Z,9164.00
2023-04-18T06:10:12.441Z,9588.00
2023-04-18T06:11:12.474Z,11196.00
2023-04-18T06:12:12.494Z,11944.00
2023-04-18T06:13:12.543Z,18848.00
2023-04-18T06:14:12.780Z,21344.00
2023-04-18T06:15:12.577Z,17632.00
2023-04-18T06:16:12.632Z,14440.00
2023-04-18T06:17:12.630Z,16192.00
2023-04-18T06:18:12.672Z,14764.00
2023-04-18T06:19:12.691Z,10944.00
2023-04-18T06:20:12.706Z,11944.00
2023-04-18T06:21:12.742Z,13372.00
2023-04-18T06:22:12.761Z,12988.00
2023-04-18T06:23:12.789Z,14272.00
2023-04-18T06:24:13.037Z,13612.00
2023-04-18T06:25:12.842Z,10736.00
2023-04-18T06:26:12.868Z,11160.00
2023-04-18T06:27:24.409Z,13328.00
2023-04-18T06:28:12.934Z,15888.00
2023-04-18T06:29:13.002Z,13996.00
2023-04-18T06:30:12.984Z,11216.00
2023-04-18T06:31:13.036Z,10416.00
2023-04-18T06:32:13.042Z,10416.00
2023-04-18T06:33:13.075Z,9868.00
2023-04-18T06:34:13.451Z,9704.00
2023-04-18T06:35:13.118Z,10184.00
2023-04-18T06:36:13.141Z,11384.00
2023-04-18T06:37:13.167Z,11876.00
2023-04-18T06:38:13.197Z,12784.00
2023-04-18T06:39:13.227Z,17504.00
2023-04-18T06:40:13.243Z,24064.00
2023-04-18T06:41:14.080Z,20352.00
2023-04-18T06:42:13.300Z,19040.00
2023-04-18T06:43:13.323Z,24640.00
2023-04-18T06:44:13.350Z,18432.00
2023-04-18T06:45:13.412Z,14612.00
2023-04-18T06:46:13.440Z,21536.00
2023-04-18T06:48:01.005Z,32832.00
2023-04-18T06:49:01.041Z,40160.00
2023-04-18T06:50:01.056Z,55296.00
2023-04-18T06:51:01.092Z,69472.00
2023-04-18T06:52:04.132Z,74944.00
2023-04-18T06:53:02.166Z,75744.00
2023-04-18T06:54:01.161Z,74368.00
2023-04-18T06:55:01.592Z,74752.00
2023-04-18T06:56:01.217Z,75232.00
2023-04-18T06:57:01.249Z,74016.00
2023-04-18T06:58:01.269Z,70240.00
2023-04-18T06:59:01.305Z,71328.00
2023-04-18T07:00:01.585Z,74112.00
2023-04-18T07:01:01.685Z,73824.00
2023-04-18T07:02:01.391Z,73536.00
2023-04-18T07:03:01.865Z,70784.00
2023-04-18T07:04:01.562Z,68480.00
2023-04-18T07:05:04.327Z,67296.00
2023-04-18T07:06:01.593Z,63360.00
2023-04-18T07:09:01.611Z,63040.00
2023-04-18T07:10:01.637Z,56832.00
2023-04-18T07:11:44.226Z,60768.00
2023-04-18T07:12:44.250Z,45920.00
2023-04-18T07:13:44.289Z,53056.00
2023-04-18T07:14:44.316Z,58176.00
2023-04-18T07:15:44.346Z,67040.00
2023-04-18T07:16:44.660Z,71232.00
2023-04-18T07:17:44.423Z,66240.00
2023-04-18T07:18:44.443Z,36768.00
2023-04-18T07:19:44.481Z,69888.00
2023-04-18T07:21:44.584Z,67968.00
2023-04-18T07:22:44.575Z,66880.00
2023-04-18T07:23:44.609Z,72000.00
2023-04-18T07:24:46.057Z,73120.00
2023-04-18T07:25:44.676Z,40768.00
2023-04-18T07:26:44.711Z,73344.00
2023-04-18T07:27:47.372Z,64256.00
2023-04-18T07:28:45.782Z,74816.00
2023-04-18T07:29:44.827Z,68064.00
2023-04-18T07:30:44.887Z,32512.00
2023-04-18T07:31:44.928Z,80832.00
2023-04-18T07:32:45.057Z,73440.00
2023-04-18T07:33:44.947Z,82432.00
2023-04-18T07:34:44.969Z,78016.00
2023-04-18T07:35:45.010Z,13340.00
2023-04-18T07:36:45.034Z,12540.00
2023-04-18T07:37:45.098Z,14552.00
2023-04-18T07:38:45.100Z,15708.00
2023-04-18T07:39:45.135Z,14720.00
2023-04-18T07:40:45.171Z,14520.00
2023-04-18T07:41:45.206Z,13280.00
2023-04-18T07:42:45.251Z,11156.00
2023-04-18T07:43:45.265Z,10244.00
2023-04-18T07:44:45.299Z,9648.00
2023-04-18T07:45:45.334Z,8848.00
2023-04-18T07:46:45.458Z,8456.00
2023-04-18T07:47:45.414Z,8188.00
2023-04-18T07:48:45.491Z,9048.00
2023-04-18T07:49:45.467Z,10440.00
2023-04-18T07:50:45.493Z,12304.00
2023-04-18T07:51:45.517Z,12812.00
2023-04-18T07:52:49.179Z,12092.00
2023-04-18T07:53:45.576Z,15396.00
2023-04-18T07:54:45.605Z,14132.00
2023-04-18T07:56:34.477Z,10536.00
2023-04-18T07:57:34.508Z,9340.00
2023-04-18T07:58:34.547Z,10180.00
2023-04-18T07:59:37.185Z,10780.00
2023-04-18T08:00:34.604Z,12084.00
2023-04-18T08:01:34.653Z,18592.00
2023-04-18T08:02:34.866Z,17376.00
2023-04-18T08:03:34.743Z,17056.00
2023-04-18T08:04:35.050Z,19104.00
2023-04-18T08:05:35.111Z,20416.00
2023-04-18T08:06:34.790Z,17632.00
2023-04-18T08:07:34.795Z,15160.00
2023-04-18T08:08:34.828Z,13836.00
2023-04-18T08:09:34.878Z,18336.00
2023-04-18T08:10:34.903Z,17568.00
2023-04-18T08:11:34.949Z,21824.00
2023-04-18T08:12:34.945Z,32128.00
2023-04-18T08:13:34.975Z,27168.00
2023-04-18T08:14:35.005Z,19296.00
2023-04-18T08:15:35.057Z,15164.00
2023-04-18T08:16:35.076Z,16992.00
2023-04-18T08:17:35.132Z,14072.00
2023-04-18T08:18:35.123Z,14056.00
2023-04-18T08:19:35.157Z,18048.00
2023-04-18T08:20:35.209Z,22240.00
2023-04-18T08:21:35.224Z,30336.00
2023-04-18T08:22:38.926Z,17856.00
2023-04-18T08:23:35.287Z,18304.00
2023-04-18T08:24:35.316Z,31968.00
2023-04-18T08:25:35.348Z,16992.00
2023-04-18T08:26:35.372Z,35264.00
2023-04-18T08:27:35.451Z,69696.00
2023-04-18T08:28:35.432Z,68864.00
2023-04-18T08:29:35.452Z,31616.00
2023-04-18T08:30:35.477Z,35616.00
2023-04-18T08:31:35.555Z,57952.00
2023-04-18T08:32:35.575Z,61408.00
2023-04-18T08:33:35.580Z,56064.00
2023-04-18T08:34:35.605Z,41088.00
2023-04-18T08:35:35.632Z,59744.00
2023-04-18T08:36:35.697Z,52064.00
2023-04-18T08:37:35.708Z,42208.00
2023-04-18T08:38:35.728Z,33024.00
2023-04-18T08:39:35.761Z,18528.00
2023-04-18T08:40:35.792Z,12148.00
2023-04-18T08:41:35.870Z,27584.00
2023-04-18T08:42:35.865Z,18336.00
2023-04-18T08:43:35.888Z,17888.00
2023-04-18T08:44:35.926Z,12264.00
2023-04-18T08:45:35.992Z,13764.00
2023-04-18T08:46:35.976Z,17888.00
2023-04-18T08:47:36.082Z,14336.00
2023-04-18T08:48:36.042Z,12832.00
2023-04-18T08:49:36.078Z,12756.00
2023-04-18T08:50:36.103Z,11288.00
2023-04-18T08:51:36.141Z,10096.00
2023-04-18T08:52:36.336Z,9068.00
2023-04-18T08:53:36.194Z,8760.00
2023-04-18T08:54:36.275Z,7736.00
2023-04-18T08:55:36.274Z,7348.00
2023-04-18T08:56:36.287Z,7752.00
2023-04-18T08:57:36.323Z,7676.00
2023-04-18T08:58:36.351Z,8264.00
2023-04-18T08:59:36.377Z,10560.00
2023-04-18T09:00:36.405Z,13280.00
2023-04-18T09:01:36.450Z,14496.00
2023-04-18T09:02:36.567Z,12980.00
2023-04-18T09:03:36.510Z,10784.00
2023-04-18T09:04:36.675Z,9584.00
2023-04-18T09:05:36.550Z,8808.00
2023-04-18T09:06:36.582Z,8552.00
2023-04-18T09:07:36.613Z,8612.00
2023-04-18T09:08:36.678Z,9284.00
2023-04-18T09:09:36.669Z,10400.00
2023-04-18T09:10:36.698Z,12156.00
2023-04-18T09:11:36.732Z,18912.00
2023-04-18T09:12:36.759Z,13956.00
2023-04-18T09:13:36.799Z,19104.00
2023-04-18T09:14:36.822Z,13640.00
2023-04-18T09:15:36.845Z,18688.00
2023-04-18T09:16:36.888Z,17504.00
2023-04-18T09:17:36.947Z,12376.00
2023-04-18T09:18:36.930Z,12068.00
2023-04-18T09:19:36.963Z,15816.00
2023-04-18T09:20:37.007Z,15540.00
2023-04-18T09:21:37.037Z,15844.00
2023-04-18T09:22:38.994Z,13748.00
2023-04-18T09:23:37.081Z,12392.00
2023-04-18T09:24:37.138Z,11484.00
2023-04-18T09:25:39.070Z,13152.00
2023-04-18T09:26:37.197Z,11512.00
2023-04-18T09:27:37.227Z,10692.00
2023-04-18T09:28:37.247Z,10324.00
2023-04-18T09:29:37.277Z,10336.00
2023-04-18T09:30:37.316Z,10648.00
2023-04-18T09:31:37.337Z,11152.00
2023-04-18T09:32:37.403Z,11576.00
2023-04-18T09:33:37.385Z,12416.00
2023-04-18T09:34:37.446Z,13892.00
2023-04-18T09:35:37.436Z,13164.00
2023-04-18T09:36:37.624Z,12240.00
2023-04-18T09:37:37.507Z,11532.00
2023-04-18T09:38:37.525Z,11224.00
2023-04-18T09:39:37.557Z,10968.00
2023-04-18T09:40:37.617Z,10608.00
2023-04-18T09:41:37.625Z,11232.00
2023-04-18T09:42:37.655Z,11980.00
2023-04-18T09:43:37.681Z,12484.00
2023-04-18T09:44:37.711Z,12252.00
2023-04-18T09:45:37.730Z,11300.00
2023-04-18T09:46:37.908Z,10976.00
2023-04-18T09:47:37.846Z,10220.00
2023-04-18T09:48:37.819Z,10344.00
2023-04-18T09:49:37.850Z,10916.00
2023-04-18T09:50:37.883Z,11640.00
2023-04-18T09:51:37.907Z,17920.00
2023-04-18T09:52:37.941Z,33440.00
2023-04-18T09:53:37.984Z,59392.00
2023-04-18T09:54:37.993Z,66400.00
2023-04-18T09:55:38.025Z,56512.00
2023-04-18T09:56:38.172Z,12532.00
2023-04-18T09:57:38.083Z,14496.00
2023-04-18T09:58:38.111Z,9580.00
2023-04-18T09:59:38.139Z,12876.00
2023-04-18T10:00:38.176Z,11388.00
2023-04-18T10:01:38.226Z,9812.00
2023-04-18T10:02:38.310Z,9768.00
2023-04-18T10:03:38.563Z,10884.00
2023-04-18T10:04:38.414Z,16220.00
2023-04-18T10:05:38.353Z,12080.00
2023-04-18T10:06:38.346Z,11604.00
2023-04-18T10:07:38.371Z,18976.00
2023-04-18T10:08:38.405Z,17376.00
2023-04-18T10:09:38.435Z,13216.00
2023-04-18T10:10:39.194Z,11444.00
2023-04-18T10:11:38.510Z,16512.00
2023-04-18T10:12:38.541Z,16352.00
2023-04-18T10:13:38.567Z,15288.00
2023-04-18T10:14:38.579Z,11140.00
2023-04-18T10:15:38.693Z,8916.00
2023-04-18T10:16:38.801Z,8484.00
2023-04-18T10:17:39.203Z,8516.00
2023-04-18T10:18:38.747Z,8772.00
2023-04-18T10:19:38.735Z,9236.00
2023-04-18T10:20:38.761Z,8760.00
2023-04-18T10:21:38.799Z,8220.00
2023-04-18T10:22:38.816Z,8024.00
2023-04-18T10:23:38.861Z,8312.00
2023-04-18T10:24:38.884Z,9368.00
2023-04-18T10:25:38.911Z,10368.00
2023-04-18T10:26:38.944Z,10848.00
2023-04-18T10:27:38.974Z,10656.00
2023-04-18T10:28:39.482Z,9996.00
2023-04-18T10:29:39.029Z,9204.00
2023-04-18T10:30:39.319Z,8632.00
2023-04-18T10:31:39.114Z,8552.00
2023-04-18T10:32:39.183Z,8452.00
2023-04-18T10:33:40.995Z,8376.00
2023-04-18T10:34:39.195Z,8576.00
2023-04-18T10:35:40.882Z,8656.00
2023-04-18T10:36:39.238Z,8896.00
2023-04-18T10:37:39.262Z,9868.00
2023-04-18T10:38:39.297Z,11076.00
2023-04-18T10:39:39.325Z,11600.00
2023-04-18T10:40:39.355Z,11968.00
2023-04-18T10:41:39.381Z,12456.00
2023-04-18T10:42:39.415Z,12860.00
2023-04-18T10:43:39.445Z,12144.00
2023-04-18T10:44:39.502Z,10608.00
2023-04-18T10:45:39.501Z,8708.00
2023-04-18T10:46:39.554Z,7888.00
2023-04-18T10:47:39.720Z,7444.00
2023-04-18T10:48:39.592Z,7556.00
2023-04-18T10:49:39.620Z,8132.00
2023-04-18T10:50:39.651Z,9504.00
2023-04-18T10:51:39.699Z,12552.00
2023-04-18T10:52:39.709Z,12812.00
2023-04-18T10:53:39.737Z,12100.00
2023-04-18T10:54:39.767Z,13100.00
2023-04-18T10:55:39.797Z,12012.00
2023-04-18T10:56:42.475Z,12128.00
2023-04-18T10:57:39.862Z,14316.00
2023-04-18T10:58:39.916Z,13020.00
2023-04-18T10:59:39.937Z,13528.00
2023-04-18T11:00:40.072Z,12920.00
2023-04-18T11:01:40.088Z,13240.00
2023-04-18T11:02:40.125Z,13528.00
2023-04-18T11:03:40.132Z,13752.00
2023-04-18T11:04:40.076Z,13544.00
2023-04-18T11:05:40.091Z,13300.00
2023-04-18T11:06:40.125Z,13552.00
2023-04-18T11:07:40.151Z,14876.00
2023-04-18T11:08:40.184Z,13892.00
2023-04-18T11:09:40.214Z,11500.00
2023-04-18T11:10:40.245Z,11352.00
2023-04-18T11:11:40.280Z,11748.00
2023-04-18T11:12:40.309Z,11552.00
2023-04-18T11:13:40.336Z,11440.00
2023-04-18T11:14:40.365Z,13848.00
2023-04-18T11:15:40.404Z,11700.00
2023-04-18T11:16:40.618Z,11304.00
2023-04-18T11:17:40.508Z,10948.00
2023-04-18T11:18:40.502Z,10708.00
2023-04-18T11:19:40.532Z,10464.00
2023-04-18T11:20:40.546Z,10116.00
2023-04-18T11:21:40.576Z,10308.00
2023-04-18T11:22:40.606Z,9880.00
2023-04-18T11:23:40.735Z,10272.00
2023-04-18T11:24:40.681Z,9924.00
2023-04-18T11:25:40.698Z,9604.00
2023-04-18T11:26:40.726Z,9560.00
2023-04-18T11:27:40.758Z,9592.00
2023-04-18T11:28:40.789Z,9304.00
2023-04-18T11:29:40.822Z,8672.00
2023-04-18T11:30:40.856Z,7960.00
2023-04-18T11:31:40.916Z,7604.00
2023-04-18T11:32:40.993Z,7476.00
2023-04-18T11:33:40.938Z,7188.00
2023-04-18T11:34:40.980Z,7236.00
2023-04-18T11:35:41.004Z,7368.00
2023-04-18T11:36:41.029Z,7460.00
2023-04-18T11:37:41.084Z,7272.00
2023-04-18T11:38:41.085Z,7412.00
2023-04-18T11:39:41.116Z,8164.00
2023-04-18T11:40:41.149Z,8960.00
2023-04-18T11:41:41.189Z,8944.00
2023-04-18T11:42:41.218Z,8512.00
2023-04-18T11:43:41.234Z,8232.00
2023-04-18T11:44:41.270Z,8452.00
2023-04-18T11:45:41.301Z,8796.00
2023-04-18T11:46:41.329Z,8584.00
2023-04-18T11:47:41.404Z,8788.00
2023-04-18T11:48:41.404Z,8520.00
2023-04-18T11:49:41.414Z,8580.00
2023-04-18T11:50:41.449Z,8652.00
2023-04-18T11:51:41.471Z,9752.00
2023-04-18T11:52:41.497Z,8848.00
2023-04-18T11:53:41.530Z,9132.00
2023-04-18T11:54:41.595Z,9232.00
2023-04-18T11:55:41.588Z,10012.00
2023-04-18T11:56:41.621Z,10696.00
2023-04-18T11:57:41.648Z,10808.00
2023-04-18T11:58:41.693Z,10796.00
2023-04-18T11:59:41.724Z,11412.00
2023-04-18T12:00:41.770Z,11796.00
2023-04-18T12:01:41.797Z,11600.00
2023-04-18T12:02:41.969Z,11916.00
2023-04-18T12:03:41.985Z,11100.00
2023-04-18T12:04:42.085Z,10960.00
2023-04-18T12:05:42.144Z,10260.00
2023-04-18T12:06:41.917Z,9688.00
2023-04-18T12:07:41.962Z,9376.00
2023-04-18T12:08:41.975Z,9176.00
2023-04-18T12:09:42.002Z,8820.00
2023-04-18T12:10:42.035Z,8396.00
2023-04-18T12:11:42.089Z,8128.00
2023-04-18T12:12:42.293Z,8048.00
2023-04-18T12:13:42.125Z,8252.00
2023-04-18T12:14:42.152Z,8644.00
2023-04-18T12:15:42.237Z,9216.00
2023-04-18T12:16:42.210Z,9188.00
2023-04-18T12:17:42.274Z,9404.00
2023-04-18T12:18:42.271Z,9528.00
2023-04-18T12:19:42.302Z,10156.00
2023-04-18T12:20:42.356Z,10200.00
2023-04-18T12:21:42.375Z,9884.00
2023-04-18T12:22:42.397Z,10124.00
2023-04-18T12:23:42.438Z,10124.00
2023-04-18T12:24:42.466Z,10692.00
2023-04-18T12:25:42.497Z,10980.00
2023-04-18T12:26:42.508Z,10828.00
2023-04-18T12:27:42.539Z,9772.00
2023-04-18T12:28:42.570Z,9432.00
2023-04-18T12:29:42.600Z,9496.00
2023-04-18T12:30:42.659Z,9960.00